sensor_id;sensor_type;location;lat;lon;timestamp;P1;durP1;ratioP1;P2;durP2;ratioP2
20721;SDS011;10522;52.198;9.890;2023-07-31T00:00:46;4.20;;;1.53;;
20721;SDS011;10522;52.198;9.890;2023-07-31T00:03:12;3.37;;;1.70;;
20721;SDS011;10522;52.198;9.890;2023-07-31T00:05:37;3.77;;;1.70;;
20721;SDS011;10522;52.198;9.890;2023-07-31T00:08:03;5.30;;;1.80;;
20721;SDS011;10522;52.198;9.890;2023-07-31T00:10:29;8.47;;;2.20;;
20721;SDS011;10522;52.198;9.890;2023-07-31T00:12:54;3.70;;;1.50;;
20721;SDS011;10522;52.198;9.890;2023-07-31T00:15:20;3.57;;;1.40;;
20721;SDS011;10522;52.198;9.890;2023-07-31T00:17:45;4.53;;;1.70;;
20721;SDS011;10522;52.198;9.890;2023-07-31T00:20:12;17.77;;;1.80;;
20721;SDS011;10522;52.198;9.890;2023-07-31T00:22:38;2.70;;;1.37;;
20721;SDS011;10522;52.198;9.890;2023-07-31T00:25:04;1.57;;;1.47;;
20721;SDS011;10522;52.198;9.890;2023-07-31T00:27:31;4.90;;;1.50;;
20721;SDS011;10522;52.198;9.890;2023-07-31T00:29:57;5.93;;;1.60;;
20721;SDS011;10522;52.198;9.890;2023-07-31T00:32:22;5.50;;;1.90;;
20721;SDS011;10522;52.198;9.890;2023-07-31T00:34:48;6.93;;;1.90;;
20721;SDS011;10522;52.198;9.890;2023-07-31T00:37:14;3.93;;;1.53;;
20721;SDS011;10522;52.198;9.890;2023-07-31T00:39:40;3.30;;;1.47;;
20721;SDS011;10522;52.198;9.890;2023-07-31T00:42:06;1.70;;;1.03;;
20721;SDS011;10522;52.198;9.890;2023-07-31T00:44:32;2.67;;;1.30;;
20721;SDS011;10522;52.198;9.890;2023-07-31T00:46:58;2.67;;;1.60;;
20721;SDS011;10522;52.198;9.890;2023-07-31T00:49:24;4.10;;;1.50;;
20721;SDS011;10522;52.198;9.890;2023-07-31T00:51:51;3.90;;;1.40;;
20721;SDS011;10522;52.198;9.890;2023-07-31T00:54:17;2.80;;;1.50;;
20721;SDS011;10522;52.198;9.890;2023-07-31T00:56:44;3.90;;;1.50;;
20721;SDS011;10522;52.198;9.890;2023-07-31T00:59:11;3.93;;;1.40;;
20721;SDS011;10522;52.198;9.890;2023-07-31T01:01:36;8.17;;;1.70;;
20721;SDS011;10522;52.198;9.890;2023-07-31T01:04:02;4.73;;;1.30;;
20721;SDS011;10522;52.198;9.890;2023-07-31T01:06:48;3.50;;;1.23;;
20721;SDS011;10522;52.198;9.890;2023-07-31T01:09:32;2.30;;;1.20;;
20721;SDS011;10522;52.198;9.890;2023-07-31T01:12:15;3.40;;;1.23;;
20721;SDS011;10522;52.198;9.890;2023-07-31T01:17:37;4.83;;;1.50;;
20721;SDS011;10522;52.198;9.890;2023-07-31T01:20:05;2.80;;;1.10;;
20721;SDS011;10522;52.198;9.890;2023-07-31T01:22:46;5.60;;;1.60;;
20721;SDS011;10522;52.198;9.890;2023-07-31T01:28:11;4.03;;;1.27;;
20721;SDS011;10522;52.198;9.890;2023-07-31T01:30:44;3.07;;;1.10;;
20721;SDS011;10522;52.198;9.890;2023-07-31T01:33:13;1.03;;;0.80;;
20721;SDS011;10522;52.198;9.890;2023-07-31T01:35:43;0.93;;;0.70;;
20721;SDS011;10522;52.198;9.890;2023-07-31T01:38:09;2.43;;;1.00;;
20721;SDS011;10522;52.198;9.890;2023-07-31T01:40:35;2.57;;;1.13;;
20721;SDS011;10522;52.198;9.890;2023-07-31T01:43:01;4.47;;;0.87;;
20721;SDS011;10522;52.198;9.890;2023-07-31T01:45:26;2.10;;;0.70;;
20721;SDS011;10522;52.198;9.890;2023-07-31T01:47:52;1.63;;;0.90;;
20721;SDS011;10522;52.198;9.890;2023-07-31T01:50:17;1.03;;;0.90;;
20721;SDS011;10522;52.198;9.890;2023-07-31T01:52:43;1.03;;;0.60;;
20721;SDS011;10522;52.198;9.890;2023-07-31T01:55:09;2.20;;;0.80;;
20721;SDS011;10522;52.198;9.890;2023-07-31T01:57:36;1.73;;;0.80;;
20721;SDS011;10522;52.198;9.890;2023-07-31T02:00:02;2.60;;;0.83;;
20721;SDS011;10522;52.198;9.890;2023-07-31T02:02:28;1.87;;;0.83;;
20721;SDS011;10522;52.198;9.890;2023-07-31T02:04:54;0.60;;;0.60;;
20721;SDS011;10522;52.198;9.890;2023-07-31T02:07:19;0.67;;;0.67;;
20721;SDS011;10522;52.198;9.890;2023-07-31T02:09:45;2.23;;;1.00;;
20721;SDS011;10522;52.198;9.890;2023-07-31T02:12:12;2.00;;;0.90;;
20721;SDS011;10522;52.198;9.890;2023-07-31T02:14:39;1.23;;;0.83;;
20721;SDS011;10522;52.198;9.890;2023-07-31T02:17:05;0.73;;;0.70;;
20721;SDS011;10522;52.198;9.890;2023-07-31T02:19:31;4.90;;;0.70;;
20721;SDS011;10522;52.198;9.890;2023-07-31T02:21:57;1.50;;;0.90;;
20721;SDS011;10522;52.198;9.890;2023-07-31T02:24:23;2.33;;;0.87;;
20721;SDS011;10522;52.198;9.890;2023-07-31T02:26:49;1.47;;;1.13;;
20721;SDS011;10522;52.198;9.890;2023-07-31T02:29:14;1.23;;;0.73;;
20721;SDS011;10522;52.198;9.890;2023-07-31T02:31:40;2.30;;;0.60;;
20721;SDS011;10522;52.198;9.890;2023-07-31T02:34:06;1.03;;;0.93;;
20721;SDS011;10522;52.198;9.890;2023-07-31T02:36:31;1.73;;;0.63;;
20721;SDS011;10522;52.198;9.890;2023-07-31T02:38:57;2.07;;;0.97;;
20721;SDS011;10522;52.198;9.890;2023-07-31T02:41:22;3.23;;;0.80;;
20721;SDS011;10522;52.198;9.890;2023-07-31T02:43:48;2.60;;;0.67;;
20721;SDS011;10522;52.198;9.890;2023-07-31T02:46:14;2.77;;;0.90;;
20721;SDS011;10522;52.198;9.890;2023-07-31T02:48:39;0.80;;;0.60;;
20721;SDS011;10522;52.198;9.890;2023-07-31T02:51:05;1.23;;;0.80;;
20721;SDS011;10522;52.198;9.890;2023-07-31T02:53:30;4.63;;;0.93;;
20721;SDS011;10522;52.198;9.890;2023-07-31T02:55:56;1.90;;;0.80;;
20721;SDS011;10522;52.198;9.890;2023-07-31T02:58:22;3.10;;;1.00;;
20721;SDS011;10522;52.198;9.890;2023-07-31T03:00:47;1.33;;;0.87;;
20721;SDS011;10522;52.198;9.890;2023-07-31T03:03:13;1.43;;;0.80;;
20721;SDS011;10522;52.198;9.890;2023-07-31T03:05:39;1.73;;;0.97;;
20721;SDS011;10522;52.198;9.890;2023-07-31T03:08:04;4.67;;;0.93;;
20721;SDS011;10522;52.198;9.890;2023-07-31T03:10:30;1.33;;;0.80;;
20721;SDS011;10522;52.198;9.890;2023-07-31T03:12:56;3.73;;;0.80;;
20721;SDS011;10522;52.198;9.890;2023-07-31T03:15:22;1.50;;;0.70;;
20721;SDS011;10522;52.198;9.890;2023-07-31T03:17:47;2.60;;;0.93;;
20721;SDS011;10522;52.198;9.890;2023-07-31T03:20:13;2.37;;;0.80;;
20721;SDS011;10522;52.198;9.890;2023-07-31T03:22:38;3.80;;;0.93;;
20721;SDS011;10522;52.198;9.890;2023-07-31T03:25:04;1.53;;;0.70;;
20721;SDS011;10522;52.198;9.890;2023-07-31T03:27:30;2.67;;;0.90;;
20721;SDS011;10522;52.198;9.890;2023-07-31T03:29:56;1.80;;;0.77;;
20721;SDS011;10522;52.198;9.890;2023-07-31T03:32:22;3.07;;;0.70;;
20721;SDS011;10522;52.198;9.890;2023-07-31T03:34:47;3.60;;;0.80;;
20721;SDS011;10522;52.198;9.890;2023-07-31T03:37:14;4.83;;;1.10;;
20721;SDS011;10522;52.198;9.890;2023-07-31T03:39:40;3.33;;;1.00;;
20721;SDS011;10522;52.198;9.890;2023-07-31T03:42:05;1.17;;;1.00;;
20721;SDS011;10522;52.198;9.890;2023-07-31T03:44:31;1.83;;;1.00;;
20721;SDS011;10522;52.198;9.890;2023-07-31T03:46:57;2.70;;;0.80;;
20721;SDS011;10522;52.198;9.890;2023-07-31T03:49:22;1.57;;;1.00;;
20721;SDS011;10522;52.198;9.890;2023-07-31T03:51:49;3.53;;;1.20;;
20721;SDS011;10522;52.198;9.890;2023-07-31T03:54:15;2.40;;;1.07;;
20721;SDS011;10522;52.198;9.890;2023-07-31T03:56:40;3.63;;;1.40;;
20721;SDS011;10522;52.198;9.890;2023-07-31T03:59:06;1.33;;;0.93;;
20721;SDS011;10522;52.198;9.890;2023-07-31T04:01:32;6.57;;;1.37;;
20721;SDS011;10522;52.198;9.890;2023-07-31T04:03:57;2.00;;;1.30;;
20721;SDS011;10522;52.198;9.890;2023-07-31T04:06:23;2.83;;;1.20;;
20721;SDS011;10522;52.198;9.890;2023-07-31T04:08:48;2.83;;;1.07;;
20721;SDS011;10522;52.198;9.890;2023-07-31T04:11:14;4.17;;;1.20;;
20721;SDS011;10522;52.198;9.890;2023-07-31T04:13:40;2.63;;;1.37;;
20721;SDS011;10522;52.198;9.890;2023-07-31T04:16:05;3.03;;;1.20;;
20721;SDS011;10522;52.198;9.890;2023-07-31T04:18:31;5.00;;;1.10;;
20721;SDS011;10522;52.198;9.890;2023-07-31T04:20:57;5.67;;;1.33;;
20721;SDS011;10522;52.198;9.890;2023-07-31T04:23:23;1.70;;;0.90;;
20721;SDS011;10522;52.198;9.890;2023-07-31T04:25:50;3.73;;;0.90;;
20721;SDS011;10522;52.198;9.890;2023-07-31T04:28:15;1.53;;;1.00;;
20721;SDS011;10522;52.198;9.890;2023-07-31T04:30:41;6.80;;;0.80;;
20721;SDS011;10522;52.198;9.890;2023-07-31T04:33:07;2.10;;;0.77;;
20721;SDS011;10522;52.198;9.890;2023-07-31T04:35:32;2.53;;;0.70;;
20721;SDS011;10522;52.198;9.890;2023-07-31T04:37:58;1.60;;;0.90;;
20721;SDS011;10522;52.198;9.890;2023-07-31T04:40:24;3.27;;;0.70;;
20721;SDS011;10522;52.198;9.890;2023-07-31T04:42:49;6.43;;;0.70;;
20721;SDS011;10522;52.198;9.890;2023-07-31T04:45:15;0.67;;;0.67;;
20721;SDS011;10522;52.198;9.890;2023-07-31T04:47:41;0.83;;;0.77;;
20721;SDS011;10522;52.198;9.890;2023-07-31T04:50:06;2.00;;;0.50;;
20721;SDS011;10522;52.198;9.890;2023-07-31T04:52:32;1.03;;;0.67;;
20721;SDS011;10522;52.198;9.890;2023-07-31T04:54:58;2.73;;;0.70;;
20721;SDS011;10522;52.198;9.890;2023-07-31T04:57:23;3.30;;;0.70;;
20721;SDS011;10522;52.198;9.890;2023-07-31T04:59:49;2.47;;;1.13;;
20721;SDS011;10522;52.198;9.890;2023-07-31T05:02:15;1.30;;;1.17;;
20721;SDS011;10522;52.198;9.890;2023-07-31T05:04:40;3.00;;;1.40;;
20721;SDS011;10522;52.198;9.890;2023-07-31T05:07:06;2.37;;;1.90;;
20721;SDS011;10522;52.198;9.890;2023-07-31T05:09:32;2.80;;;2.00;;
20721;SDS011;10522;52.198;9.890;2023-07-31T05:11:57;2.50;;;2.20;;
20721;SDS011;10522;52.198;9.890;2023-07-31T05:14:23;4.90;;;2.70;;
20721;SDS011;10522;52.198;9.890;2023-07-31T05:16:49;3.13;;;2.70;;
20721;SDS011;10522;52.198;9.890;2023-07-31T05:19:14;5.27;;;2.67;;
20721;SDS011;10522;52.198;9.890;2023-07-31T05:21:40;4.37;;;3.40;;
20721;SDS011;10522;52.198;9.890;2023-07-31T05:24:06;7.63;;;4.30;;
20721;SDS011;10522;52.198;9.890;2023-07-31T05:26:31;5.27;;;3.53;;
20721;SDS011;10522;52.198;9.890;2023-07-31T05:28:57;9.20;;;4.83;;
20721;SDS011;10522;52.198;9.890;2023-07-31T05:31:23;8.03;;;5.30;;
20721;SDS011;10522;52.198;9.890;2023-07-31T05:33:49;9.23;;;5.57;;
20721;SDS011;10522;52.198;9.890;2023-07-31T05:36:15;10.60;;;5.30;;
20721;SDS011;10522;52.198;9.890;2023-07-31T05:38:41;12.97;;;5.80;;
20721;SDS011;10522;52.198;9.890;2023-07-31T05:41:09;11.30;;;6.13;;
20721;SDS011;10522;52.198;9.890;2023-07-31T05:43:35;9.00;;;6.10;;
20721;SDS011;10522;52.198;9.890;2023-07-31T05:46:01;11.20;;;6.23;;
20721;SDS011;10522;52.198;9.890;2023-07-31T05:48:27;12.23;;;7.20;;
20721;SDS011;10522;52.198;9.890;2023-07-31T05:50:52;13.37;;;6.03;;
20721;SDS011;10522;52.198;9.890;2023-07-31T05:53:18;12.87;;;6.60;;
20721;SDS011;10522;52.198;9.890;2023-07-31T05:55:43;14.30;;;6.07;;
20721;SDS011;10522;52.198;9.890;2023-07-31T05:58:09;12.30;;;6.13;;
20721;SDS011;10522;52.198;9.890;2023-07-31T06:00:34;11.13;;;6.27;;
20721;SDS011;10522;52.198;9.890;2023-07-31T06:03:00;11.40;;;5.70;;
20721;SDS011;10522;52.198;9.890;2023-07-31T06:05:26;8.77;;;5.17;;
20721;SDS011;10522;52.198;9.890;2023-07-31T06:07:53;7.23;;;4.63;;
20721;SDS011;10522;52.198;9.890;2023-07-31T06:10:19;8.17;;;4.57;;
20721;SDS011;10522;52.198;9.890;2023-07-31T06:12:44;9.50;;;4.53;;
20721;SDS011;10522;52.198;9.890;2023-07-31T06:15:10;11.67;;;6.13;;
20721;SDS011;10522;52.198;9.890;2023-07-31T06:17:36;8.23;;;4.30;;
20721;SDS011;10522;52.198;9.890;2023-07-31T06:20:02;9.13;;;5.87;;
20721;SDS011;10522;52.198;9.890;2023-07-31T06:22:30;11.20;;;5.40;;
20721;SDS011;10522;52.198;9.890;2023-07-31T06:24:56;10.77;;;5.40;;
20721;SDS011;10522;52.198;9.890;2023-07-31T06:27:22;10.23;;;5.40;;
20721;SDS011;10522;52.198;9.890;2023-07-31T06:29:47;11.93;;;5.97;;
20721;SDS011;10522;52.198;9.890;2023-07-31T06:32:13;8.67;;;5.87;;
20721;SDS011;10522;52.198;9.890;2023-07-31T06:34:39;12.80;;;6.30;;
20721;SDS011;10522;52.198;9.890;2023-07-31T06:37:04;10.13;;;6.57;;
20721;SDS011;10522;52.198;9.890;2023-07-31T06:39:33;12.87;;;7.20;;
20721;SDS011;10522;52.198;9.890;2023-07-31T06:41:58;15.60;;;8.00;;
20721;SDS011;10522;52.198;9.890;2023-07-31T06:44:24;15.90;;;8.07;;
20721;SDS011;10522;52.198;9.890;2023-07-31T06:46:50;15.43;;;8.13;;
20721;SDS011;10522;52.198;9.890;2023-07-31T06:49:16;16.20;;;8.23;;
20721;SDS011;10522;52.198;9.890;2023-07-31T06:51:41;13.40;;;8.23;;
20721;SDS011;10522;52.198;9.890;2023-07-31T06:54:08;18.03;;;8.77;;
20721;SDS011;10522;52.198;9.890;2023-07-31T06:56:33;19.80;;;9.13;;
20721;SDS011;10522;52.198;9.890;2023-07-31T06:58:59;12.83;;;8.57;;
20721;SDS011;10522;52.198;9.890;2023-07-31T07:01:25;19.27;;;8.93;;
20721;SDS011;10522;52.198;9.890;2023-07-31T07:03:52;15.50;;;9.23;;
20721;SDS011;10522;52.198;9.890;2023-07-31T07:06:18;23.17;;;10.33;;
20721;SDS011;10522;52.198;9.890;2023-07-31T07:08:44;17.77;;;9.67;;
20721;SDS011;10522;52.198;9.890;2023-07-31T07:11:09;17.13;;;8.97;;
20721;SDS011;10522;52.198;9.890;2023-07-31T07:13:35;16.90;;;8.67;;
20721;SDS011;10522;52.198;9.890;2023-07-31T07:16:01;20.73;;;9.83;;
20721;SDS011;10522;52.198;9.890;2023-07-31T07:18:26;13.87;;;8.70;;
20721;SDS011;10522;52.198;9.890;2023-07-31T07:20:53;12.87;;;9.10;;
20721;SDS011;10522;52.198;9.890;2023-07-31T07:23:19;11.77;;;7.43;;
20721;SDS011;10522;52.198;9.890;2023-07-31T07:25:46;15.70;;;8.10;;
20721;SDS011;10522;52.198;9.890;2023-07-31T07:28:12;15.40;;;7.80;;
20721;SDS011;10522;52.198;9.890;2023-07-31T07:30:38;13.57;;;7.30;;
20721;SDS011;10522;52.198;9.890;2023-07-31T07:33:04;10.73;;;7.27;;
20721;SDS011;10522;52.198;9.890;2023-07-31T07:35:30;15.33;;;6.70;;
20721;SDS011;10522;52.198;9.890;2023-07-31T07:37:57;14.10;;;6.80;;
20721;SDS011;10522;52.198;9.890;2023-07-31T07:40:23;14.33;;;6.83;;
20721;SDS011;10522;52.198;9.890;2023-07-31T07:42:49;13.23;;;7.13;;
20721;SDS011;10522;52.198;9.890;2023-07-31T07:45:15;12.13;;;6.93;;
20721;SDS011;10522;52.198;9.890;2023-07-31T07:47:41;16.53;;;7.70;;
20721;SDS011;10522;52.198;9.890;2023-07-31T07:50:07;14.87;;;6.97;;
20721;SDS011;10522;52.198;9.890;2023-07-31T07:52:33;15.47;;;5.90;;
20721;SDS011;10522;52.198;9.890;2023-07-31T07:54:59;15.17;;;6.90;;
20721;SDS011;10522;52.198;9.890;2023-07-31T07:57:25;14.50;;;6.47;;
20721;SDS011;10522;52.198;9.890;2023-07-31T07:59:51;11.93;;;6.63;;
20721;SDS011;10522;52.198;9.890;2023-07-31T08:02:17;16.57;;;6.97;;
20721;SDS011;10522;52.198;9.890;2023-07-31T08:04:42;16.30;;;7.33;;
20721;SDS011;10522;52.198;9.890;2023-07-31T08:07:10;16.87;;;7.23;;
20721;SDS011;10522;52.198;9.890;2023-07-31T08:09:37;11.13;;;7.00;;
20721;SDS011;10522;52.198;9.890;2023-07-31T08:12:03;10.90;;;5.70;;
20721;SDS011;10522;52.198;9.890;2023-07-31T08:14:29;14.43;;;6.73;;
20721;SDS011;10522;52.198;9.890;2023-07-31T08:16:57;11.17;;;6.00;;
20721;SDS011;10522;52.198;9.890;2023-07-31T08:19:23;13.70;;;6.97;;
20721;SDS011;10522;52.198;9.890;2023-07-31T08:21:49;18.97;;;6.77;;
20721;SDS011;10522;52.198;9.890;2023-07-31T08:24:15;10.77;;;6.60;;
20721;SDS011;10522;52.198;9.890;2023-07-31T08:26:40;14.20;;;6.17;;
20721;SDS011;10522;52.198;9.890;2023-07-31T08:29:06;16.17;;;7.00;;
20721;SDS011;10522;52.198;9.890;2023-07-31T08:31:32;11.73;;;6.33;;
20721;SDS011;10522;52.198;9.890;2023-07-31T08:33:57;14.70;;;6.43;;
20721;SDS011;10522;52.198;9.890;2023-07-31T08:36:23;11.40;;;6.37;;
20721;SDS011;10522;52.198;9.890;2023-07-31T08:38:49;15.57;;;6.87;;
20721;SDS011;10522;52.198;9.890;2023-07-31T08:41:15;13.77;;;6.47;;
20721;SDS011;10522;52.198;9.890;2023-07-31T08:43:44;12.13;;;5.90;;
20721;SDS011;10522;52.198;9.890;2023-07-31T08:46:11;12.83;;;6.30;;
20721;SDS011;10522;52.198;9.890;2023-07-31T08:48:39;10.40;;;5.60;;
20721;SDS011;10522;52.198;9.890;2023-07-31T08:51:07;8.33;;;5.17;;
20721;SDS011;10522;52.198;9.890;2023-07-31T08:53:33;12.07;;;5.27;;
20721;SDS011;10522;52.198;9.890;2023-07-31T08:55:59;11.20;;;5.60;;
20721;SDS011;10522;52.198;9.890;2023-07-31T08:58:25;8.80;;;4.83;;
20721;SDS011;10522;52.198;9.890;2023-07-31T09:00:55;10.67;;;4.60;;
20721;SDS011;10522;52.198;9.890;2023-07-31T09:03:23;7.90;;;4.53;;
20721;SDS011;10522;52.198;9.890;2023-07-31T09:05:50;12.60;;;4.87;;
20721;SDS011;10522;52.198;9.890;2023-07-31T09:08:20;5.80;;;4.07;;
20721;SDS011;10522;52.198;9.890;2023-07-31T09:10:46;6.90;;;4.17;;
20721;SDS011;10522;52.198;9.890;2023-07-31T09:13:15;6.80;;;3.60;;
20721;SDS011;10522;52.198;9.890;2023-07-31T09:15:42;9.00;;;3.53;;
20721;SDS011;10522;52.198;9.890;2023-07-31T09:18:09;4.60;;;3.13;;
20721;SDS011;10522;52.198;9.890;2023-07-31T09:20:35;4.90;;;2.87;;
20721;SDS011;10522;52.198;9.890;2023-07-31T09:23:12;4.60;;;2.57;;
20721;SDS011;10522;52.198;9.890;2023-07-31T09:25:39;3.87;;;2.70;;
20721;SDS011;10522;52.198;9.890;2023-07-31T09:28:09;4.50;;;2.10;;
20721;SDS011;10522;52.198;9.890;2023-07-31T09:33:30;3.77;;;2.00;;
20721;SDS011;10522;52.198;9.890;2023-07-31T09:35:58;5.37;;;2.33;;
20721;SDS011;10522;52.198;9.890;2023-07-31T09:38:25;3.00;;;1.93;;
20721;SDS011;10522;52.198;9.890;2023-07-31T09:40:51;3.03;;;2.43;;
20721;SDS011;10522;52.198;9.890;2023-07-31T09:43:17;2.83;;;2.07;;
20721;SDS011;10522;52.198;9.890;2023-07-31T09:45:45;3.17;;;2.13;;
20721;SDS011;10522;52.198;9.890;2023-07-31T09:48:12;4.53;;;2.53;;
20721;SDS011;10522;52.198;9.890;2023-07-31T09:50:41;3.70;;;2.90;;
20721;SDS011;10522;52.198;9.890;2023-07-31T09:53:08;3.67;;;2.40;;
20721;SDS011;10522;52.198;9.890;2023-07-31T09:55:34;4.83;;;2.70;;
20721;SDS011;10522;52.198;9.890;2023-07-31T09:58:05;11.87;;;2.90;;
20721;SDS011;10522;52.198;9.890;2023-07-31T10:00:33;3.03;;;2.60;;
20721;SDS011;10522;52.198;9.890;2023-07-31T10:03:00;6.80;;;3.13;;
20721;SDS011;10522;52.198;9.890;2023-07-31T10:05:31;6.20;;;3.20;;
20721;SDS011;10522;52.198;9.890;2023-07-31T10:08:00;5.10;;;3.30;;
20721;SDS011;10522;52.198;9.890;2023-07-31T10:10:26;5.13;;;3.20;;
20721;SDS011;10522;52.198;9.890;2023-07-31T10:12:53;4.57;;;2.73;;
20721;SDS011;10522;52.198;9.890;2023-07-31T10:15:20;6.77;;;3.07;;
20721;SDS011;10522;52.198;9.890;2023-07-31T10:17:47;4.53;;;2.97;;
20721;SDS011;10522;52.198;9.890;2023-07-31T10:20:14;5.87;;;3.03;;
20721;SDS011;10522;52.198;9.890;2023-07-31T10:22:41;4.57;;;2.90;;
20721;SDS011;10522;52.198;9.890;2023-07-31T10:25:13;4.13;;;2.90;;
20721;SDS011;10522;52.198;9.890;2023-07-31T10:27:42;4.60;;;2.97;;
20721;SDS011;10522;52.198;9.890;2023-07-31T10:30:08;6.03;;;3.50;;
20721;SDS011;10522;52.198;9.890;2023-07-31T10:32:37;6.70;;;3.27;;
20721;SDS011;10522;52.198;9.890;2023-07-31T10:35:05;5.47;;;2.80;;
20721;SDS011;10522;52.198;9.890;2023-07-31T10:37:39;9.10;;;3.60;;
20721;SDS011;10522;52.198;9.890;2023-07-31T10:40:09;5.67;;;3.60;;
20721;SDS011;10522;52.198;9.890;2023-07-31T10:42:46;5.73;;;3.00;;
20721;SDS011;10522;52.198;9.890;2023-07-31T10:45:13;4.37;;;3.20;;
20721;SDS011;10522;52.198;9.890;2023-07-31T10:47:49;5.63;;;3.50;;
20721;SDS011;10522;52.198;9.890;2023-07-31T10:50:19;4.93;;;3.07;;
20721;SDS011;10522;52.198;9.890;2023-07-31T10:52:46;11.40;;;3.97;;
20721;SDS011;10522;52.198;9.890;2023-07-31T11:00:32;5.13;;;2.70;;
20721;SDS011;10522;52.198;9.890;2023-07-31T11:02:59;7.40;;;3.10;;
20721;SDS011;10522;52.198;9.890;2023-07-31T11:06:01;5.23;;;2.90;;
20721;SDS011;10522;52.198;9.890;2023-07-31T11:13:26;4.57;;;2.93;;
20721;SDS011;10522;52.198;9.890;2023-07-31T11:15:56;5.03;;;2.53;;
20721;SDS011;10522;52.198;9.890;2023-07-31T11:18:21;3.67;;;2.37;;
20721;SDS011;10522;52.198;9.890;2023-07-31T11:20:47;4.00;;;2.57;;
20721;SDS011;10522;52.198;9.890;2023-07-31T11:23:15;4.63;;;2.70;;
20721;SDS011;10522;52.198;9.890;2023-07-31T11:25:42;5.77;;;3.00;;
20721;SDS011;10522;52.198;9.890;2023-07-31T11:28:11;5.33;;;2.47;;
20721;SDS011;10522;52.198;9.890;2023-07-31T11:30:39;4.23;;;3.00;;
20721;SDS011;10522;52.198;9.890;2023-07-31T11:33:09;3.87;;;2.60;;
20721;SDS011;10522;52.198;9.890;2023-07-31T11:35:40;5.30;;;2.50;;
20721;SDS011;10522;52.198;9.890;2023-07-31T11:38:23;4.50;;;2.20;;
20721;SDS011;10522;52.198;9.890;2023-07-31T11:40:50;4.67;;;2.57;;
20721;SDS011;10522;52.198;9.890;2023-07-31T11:43:17;6.17;;;3.23;;
20721;SDS011;10522;52.198;9.890;2023-07-31T11:45:47;4.53;;;2.60;;
20721;SDS011;10522;52.198;9.890;2023-07-31T11:48:23;5.70;;;2.47;;
20721;SDS011;10522;52.198;9.890;2023-07-31T11:50:52;4.60;;;2.43;;
20721;SDS011;10522;52.198;9.890;2023-07-31T11:55:57;3.13;;;2.37;;
20721;SDS011;10522;52.198;9.890;2023-07-31T11:58:25;5.70;;;2.10;;
20721;SDS011;10522;52.198;9.890;2023-07-31T12:00:52;3.00;;;2.43;;
20721;SDS011;10522;52.198;9.890;2023-07-31T12:03:19;4.20;;;2.30;;
20721;SDS011;10522;52.198;9.890;2023-07-31T12:05:46;2.97;;;2.20;;
20721;SDS011;10522;52.198;9.890;2023-07-31T12:08:12;6.20;;;2.13;;
20721;SDS011;10522;52.198;9.890;2023-07-31T12:10:38;4.70;;;2.30;;
20721;SDS011;10522;52.198;9.890;2023-07-31T12:13:10;8.03;;;2.30;;
20721;SDS011;10522;52.198;9.890;2023-07-31T12:18:07;3.03;;;2.00;;
20721;SDS011;10522;52.198;9.890;2023-07-31T12:20:34;3.77;;;2.50;;
20721;SDS011;10522;52.198;9.890;2023-07-31T12:23:00;3.17;;;2.30;;
20721;SDS011;10522;52.198;9.890;2023-07-31T12:25:30;3.93;;;2.27;;
20721;SDS011;10522;52.198;9.890;2023-07-31T12:28:03;2.77;;;2.13;;
20721;SDS011;10522;52.198;9.890;2023-07-31T12:30:34;2.83;;;2.37;;
20721;SDS011;10522;52.198;9.890;2023-07-31T12:33:13;4.17;;;2.50;;
20721;SDS011;10522;52.198;9.890;2023-07-31T12:35:46;5.87;;;1.90;;
20721;SDS011;10522;52.198;9.890;2023-07-31T12:38:12;4.70;;;2.10;;
20721;SDS011;10522;52.198;9.890;2023-07-31T12:40:39;5.23;;;1.93;;
20721;SDS011;10522;52.198;9.890;2023-07-31T12:43:06;2.77;;;1.90;;
20721;SDS011;10522;52.198;9.890;2023-07-31T12:45:33;2.73;;;1.90;;
20721;SDS011;10522;52.198;9.890;2023-07-31T12:47:59;5.00;;;2.00;;
20721;SDS011;10522;52.198;9.890;2023-07-31T12:50:25;3.53;;;1.60;;
20721;SDS011;10522;52.198;9.890;2023-07-31T12:52:52;2.17;;;1.40;;
20721;SDS011;10522;52.198;9.890;2023-07-31T12:55:20;4.57;;;1.47;;
20721;SDS011;10522;52.198;9.890;2023-07-31T12:57:46;2.40;;;1.63;;
20721;SDS011;10522;52.198;9.890;2023-07-31T13:00:12;1.30;;;1.20;;
20721;SDS011;10522;52.198;9.890;2023-07-31T13:02:38;2.00;;;1.40;;
20721;SDS011;10522;52.198;9.890;2023-07-31T13:05:04;1.20;;;1.10;;
20721;SDS011;10522;52.198;9.890;2023-07-31T13:07:30;4.70;;;1.40;;
20721;SDS011;10522;52.198;9.890;2023-07-31T13:09:55;2.67;;;1.20;;
20721;SDS011;10522;52.198;9.890;2023-07-31T13:12:21;0.93;;;0.77;;
20721;SDS011;10522;52.198;9.890;2023-07-31T13:14:47;0.87;;;0.80;;
20721;SDS011;10522;52.198;9.890;2023-07-31T13:17:12;0.83;;;0.83;;
20721;SDS011;10522;52.198;9.890;2023-07-31T13:19:38;1.40;;;0.90;;
20721;SDS011;10522;52.198;9.890;2023-07-31T13:22:03;1.50;;;0.90;;
20721;SDS011;10522;52.198;9.890;2023-07-31T13:24:29;1.73;;;0.80;;
20721;SDS011;10522;52.198;9.890;2023-07-31T13:26:55;1.13;;;0.83;;
20721;SDS011;10522;52.198;9.890;2023-07-31T13:29:21;1.70;;;0.77;;
20721;SDS011;10522;52.198;9.890;2023-07-31T13:31:47;0.90;;;0.90;;
20721;SDS011;10522;52.198;9.890;2023-07-31T13:34:13;1.03;;;0.93;;
20721;SDS011;10522;52.198;9.890;2023-07-31T13:36:38;1.20;;;0.93;;
20721;SDS011;10522;52.198;9.890;2023-07-31T13:39:04;1.77;;;0.83;;
20721;SDS011;10522;52.198;9.890;2023-07-31T13:41:30;1.47;;;0.90;;
20721;SDS011;10522;52.198;9.890;2023-07-31T13:43:55;0.93;;;0.63;;
20721;SDS011;10522;52.198;9.890;2023-07-31T13:46:21;5.90;;;1.10;;
20721;SDS011;10522;52.198;9.890;2023-07-31T13:48:47;0.73;;;0.73;;
20721;SDS011;10522;52.198;9.890;2023-07-31T13:51:12;0.97;;;0.50;;
20721;SDS011;10522;52.198;9.890;2023-07-31T13:53:38;0.93;;;0.70;;
20721;SDS011;10522;52.198;9.890;2023-07-31T13:56:03;1.33;;;1.20;;
20721;SDS011;10522;52.198;9.890;2023-07-31T13:58:29;1.30;;;0.70;;
20721;SDS011;10522;52.198;9.890;2023-07-31T14:00:55;4.10;;;0.87;;
20721;SDS011;10522;52.198;9.890;2023-07-31T14:03:20;0.70;;;0.70;;
20721;SDS011;10522;52.198;9.890;2023-07-31T14:05:46;1.27;;;0.60;;
20721;SDS011;10522;52.198;9.890;2023-07-31T14:08:11;2.03;;;0.90;;
20721;SDS011;10522;52.198;9.890;2023-07-31T14:10:37;1.17;;;0.80;;
20721;SDS011;10522;52.198;9.890;2023-07-31T14:13:03;3.17;;;0.70;;
20721;SDS011;10522;52.198;9.890;2023-07-31T14:15:28;0.80;;;0.60;;
20721;SDS011;10522;52.198;9.890;2023-07-31T14:17:54;1.50;;;0.70;;
20721;SDS011;10522;52.198;9.890;2023-07-31T14:20:19;2.33;;;1.17;;
20721;SDS011;10522;52.198;9.890;2023-07-31T14:22:45;0.90;;;0.70;;
20721;SDS011;10522;52.198;9.890;2023-07-31T14:25:11;1.53;;;1.03;;
20721;SDS011;10522;52.198;9.890;2023-07-31T14:27:36;1.00;;;0.70;;
20721;SDS011;10522;52.198;9.890;2023-07-31T14:30:02;0.83;;;0.70;;
20721;SDS011;10522;52.198;9.890;2023-07-31T14:32:28;1.30;;;0.80;;
20721;SDS011;10522;52.198;9.890;2023-07-31T14:34:54;0.70;;;0.60;;
20721;SDS011;10522;52.198;9.890;2023-07-31T14:37:20;0.87;;;0.87;;
20721;SDS011;10522;52.198;9.890;2023-07-31T14:39:45;0.70;;;0.70;;
20721;SDS011;10522;52.198;9.890;2023-07-31T14:42:11;1.73;;;0.90;;
20721;SDS011;10522;52.198;9.890;2023-07-31T14:44:37;1.37;;;0.90;;
20721;SDS011;10522;52.198;9.890;2023-07-31T14:47:03;4.07;;;1.20;;
20721;SDS011;10522;52.198;9.890;2023-07-31T14:49:28;2.80;;;1.10;;
20721;SDS011;10522;52.198;9.890;2023-07-31T14:51:54;1.60;;;1.30;;
20721;SDS011;10522;52.198;9.890;2023-07-31T14:54:20;1.30;;;1.20;;
20721;SDS011;10522;52.198;9.890;2023-07-31T14:56:45;2.30;;;1.57;;
20721;SDS011;10522;52.198;9.890;2023-07-31T14:59:11;1.70;;;1.37;;
20721;SDS011;10522;52.198;9.890;2023-07-31T15:01:37;2.07;;;1.50;;
20721;SDS011;10522;52.198;9.890;2023-07-31T15:04:03;2.93;;;2.53;;
20721;SDS011;10522;52.198;9.890;2023-07-31T15:06:29;1.60;;;1.50;;